sensor_id;sensor_type;location;lat;lon;timestamp;pressure;altitude;pressure_sealevel;temperature;humidity
84492;BME280;74718;40.778;21.400;2024-02-26T00:00:36;93328.14;;;9.52;74.41
84492;BME280;74718;40.778;21.400;2024-02-26T00:03:02;93328.45;;;9.51;74.17
84492;BME280;74718;40.778;21.400;2024-02-26T00:05:28;93326.30;;;9.50;74.40
84492;BME280;74718;40.778;21.400;2024-02-26T00:07:53;93321.77;;;9.51;74.20
84492;BME280;74718;40.778;21.400;2024-02-26T00:10:19;93320.34;;;9.52;74.27
84492;BME280;74718;40.778;21.400;2024-02-26T00:12:44;93321.63;;;9.50;74.23
84492;BME280;74718;40.778;21.400;2024-02-26T00:15:10;93321.04;;;9.46;74.27
84492;BME280;74718;40.778;21.400;2024-02-26T00:17:36;93317.73;;;9.44;74.30
84492;BME280;74718;40.778;21.400;2024-02-26T00:20:03;93316.08;;;9.48;74.47
84492;BME280;74718;40.778;21.400;2024-02-26T00:22:35;93316.50;;;9.52;74.60
84492;BME280;74718;40.778;21.400;2024-02-26T00:25:00;93314.65;;;9.53;74.84
84492;BME280;74718;40.778;21.400;2024-02-26T00:27:26;93312.15;;;9.56;74.41
84492;BME280;74718;40.778;21.400;2024-02-26T00:29:51;93304.57;;;9.56;74.46
84492;BME280;74718;40.778;21.400;2024-02-26T00:32:17;93304.73;;;9.51;74.37
84492;BME280;74718;40.778;21.400;2024-02-26T00:34:42;93300.84;;;9.46;74.37
84492;BME280;74718;40.778;21.400;2024-02-26T00:37:08;93299.80;;;9.41;74.54
84492;BME280;74718;40.778;21.400;2024-02-26T00:39:33;93300.33;;;9.35;74.69
84492;BME280;74718;40.778;21.400;2024-02-26T00:41:59;93299.52;;;9.33;74.55
84492;BME280;74718;40.778;21.400;2024-02-26T00:44:24;93299.58;;;9.38;74.64
84492;BME280;74718;40.778;21.400;2024-02-26T00:46:50;93297.48;;;9.41;74.78
84492;BME280;74718;40.778;21.400;2024-02-26T00:49:15;93294.64;;;9.49;74.79
84492;BME280;74718;40.778;21.400;2024-02-26T00:51:41;93298.79;;;9.55;74.61
84492;BME280;74718;40.778;21.400;2024-02-26T00:54:06;93300.55;;;9.58;74.73
84492;BME280;74718;40.778;21.400;2024-02-26T00:56:31;93298.92;;;9.61;74.59
84492;BME280;74718;40.778;21.400;2024-02-26T00:58:58;93297.34;;;9.65;74.37
84492;BME280;74718;40.778;21.400;2024-02-26T01:01:23;93297.18;;;9.66;74.54
84492;BME280;74718;40.778;21.400;2024-02-26T01:03:49;93294.52;;;9.64;74.46
84492;BME280;74718;40.778;21.400;2024-02-26T01:06:14;93294.35;;;9.64;74.64
84492;BME280;74718;40.778;21.400;2024-02-26T01:08:39;93288.85;;;9.67;74.45
84492;BME280;74718;40.778;21.400;2024-02-26T01:11:05;93287.45;;;9.70;74.26
84492;BME280;74718;40.778;21.400;2024-02-26T01:13:31;93286.28;;;9.71;74.19
84492;BME280;74718;40.778;21.400;2024-02-26T01:15:56;93280.25;;;9.69;74.23
84492;BME280;74718;40.778;21.400;2024-02-26T01:18:21;93278.84;;;9.68;74.57
84492;BME280;74718;40.778;21.400;2024-02-26T01:20:48;93278.86;;;9.74;74.58
84492;BME280;74718;40.778;21.400;2024-02-26T01:23:14;93275.88;;;9.80;74.71
84492;BME280;74718;40.778;21.400;2024-02-26T01:25:39;93269.67;;;9.84;74.22
84492;BME280;74718;40.778;21.400;2024-02-26T01:28:05;93264.98;;;9.85;74.48
84492;BME280;74718;40.778;21.400;2024-02-26T01:30:31;93264.91;;;9.86;74.31
84492;BME280;74718;40.778;21.400;2024-02-26T01:32:57;93263.02;;;9.85;74.58
84492;BME280;74718;40.778;21.400;2024-02-26T01:35:22;93260.08;;;9.80;74.42
84492;BME280;74718;40.778;21.400;2024-02-26T01:37:48;93257.34;;;9.77;74.72
84492;BME280;74718;40.778;21.400;2024-02-26T01:40:14;93252.69;;;9.78;74.63
84492;BME280;74718;40.778;21.400;2024-02-26T01:42:45;93252.41;;;9.80;74.72
84492;BME280;74718;40.778;21.400;2024-02-26T01:45:14;93247.89;;;9.83;74.62
84492;BME280;74718;40.778;21.400;2024-02-26T01:47:54;93245.69;;;9.87;74.38
84492;BME280;74718;40.778;21.400;2024-02-26T01:50:20;93240.15;;;9.91;74.20
84492;BME280;74718;40.778;21.400;2024-02-26T01:52:49;93238.38;;;9.93;74.42
84492;BME280;74718;40.778;21.400;2024-02-26T01:55:15;93237.75;;;9.97;74.11
84492;BME280;74718;40.778;21.400;2024-02-26T01:57:43;93240.60;;;9.96;74.35
84492;BME280;74718;40.778;21.400;2024-02-26T02:00:10;93243.61;;;9.91;74.38
84492;BME280;74718;40.778;21.400;2024-02-26T02:02:36;93241.75;;;9.81;74.26
84492;BME280;74718;40.778;21.400;2024-02-26T02:05:02;93247.63;;;9.75;74.32
84492;BME280;74718;40.778;21.400;2024-02-26T02:07:28;93239.92;;;9.69;74.50
84492;BME280;74718;40.778;21.400;2024-02-26T02:09:54;93246.89;;;9.73;74.69
84492;BME280;74718;40.778;21.400;2024-02-26T02:12:20;93250.50;;;9.74;74.54
84492;BME280;74718;40.778;21.400;2024-02-26T02:14:46;93246.01;;;9.71;74.71
84492;BME280;74718;40.778;21.400;2024-02-26T02:17:12;93241.10;;;9.68;74.93
84492;BME280;74718;40.778;21.400;2024-02-26T02:19:37;93238.33;;;9.67;75.03
84492;BME280;74718;40.778;21.400;2024-02-26T02:22:03;93235.96;;;9.65;74.96
84492;BME280;74718;40.778;21.400;2024-02-26T02:24:28;93238.20;;;9.68;74.93
84492;BME280;74718;40.778;21.400;2024-02-26T02:26:55;93237.61;;;9.73;75.18
84492;BME280;74718;40.778;21.400;2024-02-26T02:29:20;93235.22;;;9.78;75.05
84492;BME280;74718;40.778;21.400;2024-02-26T02:31:46;93236.03;;;9.80;74.78
84492;BME280;74718;40.778;21.400;2024-02-26T02:34:12;93238.26;;;9.83;74.95
84492;BME280;74718;40.778;21.400;2024-02-26T02:36:54;93241.12;;;9.85;74.56
84492;BME280;74718;40.778;21.400;2024-02-26T02:39:21;93239.63;;;9.83;74.66
84492;BME280;74718;40.778;21.400;2024-02-26T02:41:46;93240.27;;;9.82;74.53
84492;BME280;74718;40.778;21.400;2024-02-26T02:44:12;93242.88;;;9.84;74.59
84492;BME280;74718;40.778;21.400;2024-02-26T02:46:38;93240.64;;;9.87;74.62
84492;BME280;74718;40.778;21.400;2024-02-26T02:49:08;93238.09;;;9.88;74.86
84492;BME280;74718;40.778;21.400;2024-02-26T02:51:33;93230.45;;;9.89;74.71
84492;BME280;74718;40.778;21.400;2024-02-26T02:53:59;93229.08;;;9.89;74.82
84492;BME280;74718;40.778;21.400;2024-02-26T02:56:24;93227.39;;;9.85;74.63
84492;BME280;74718;40.778;21.400;2024-02-26T02:58:50;93229.70;;;9.77;74.79
84492;BME280;74718;40.778;21.400;2024-02-26T03:01:15;93224.44;;;9.71;74.63
84492;BME280;74718;40.778;21.400;2024-02-26T03:03:41;93223.79;;;9.63;74.64
84492;BME280;74718;40.778;21.400;2024-02-26T03:06:06;93227.15;;;9.57;74.81
84492;BME280;74718;40.778;21.400;2024-02-26T03:08:32;93225.31;;;9.57;74.99
84492;BME280;74718;40.778;21.400;2024-02-26T03:10:58;93225.02;;;9.54;74.95
84492;BME280;74718;40.778;21.400;2024-02-26T03:13:24;93232.09;;;9.54;75.15
84492;BME280;74718;40.778;21.400;2024-02-26T03:15:49;93229.11;;;9.51;75.08
84492;BME280;74718;40.778;21.400;2024-02-26T03:18:15;93228.80;;;9.51;75.12
84492;BME280;74718;40.778;21.400;2024-02-26T03:20:40;93224.79;;;9.52;75.22
84492;BME280;74718;40.778;21.400;2024-02-26T03:23:06;93225.17;;;9.55;75.41
84492;BME280;74718;40.778;21.400;2024-02-26T03:25:31;93226.73;;;9.52;75.30
84492;BME280;74718;40.778;21.400;2024-02-26T03:27:57;93225.23;;;9.49;75.20
84492;BME280;74718;40.778;21.400;2024-02-26T03:30:22;93224.73;;;9.47;75.27
84492;BME280;74718;40.778;21.400;2024-02-26T03:32:47;93221.70;;;9.43;75.32
84492;BME280;74718;40.778;21.400;2024-02-26T03:35:13;93223.51;;;9.37;74.96
84492;BME280;74718;40.778;21.400;2024-02-26T03:37:38;93220.17;;;9.34;75.16
84492;BME280;74718;40.778;21.400;2024-02-26T03:40:05;93217.83;;;9.32;75.27
84492;BME280;74718;40.778;21.400;2024-02-26T03:42:31;93220.46;;;9.28;75.37
84492;BME280;74718;40.778;21.400;2024-02-26T03:44:56;93222.04;;;9.25;75.32
84492;BME280;74718;40.778;21.400;2024-02-26T03:47:22;93222.23;;;9.22;75.70
84492;BME280;74718;40.778;21.400;2024-02-26T03:49:47;93221.63;;;9.18;75.54
84492;BME280;74718;40.778;21.400;2024-02-26T03:52:13;93223.02;;;9.15;75.67
84492;BME280;74718;40.778;21.400;2024-02-26T03:54:40;93225.97;;;9.15;75.56
84492;BME280;74718;40.778;21.400;2024-02-26T03:57:05;93228.85;;;9.16;75.72
84492;BME280;74718;40.778;21.400;2024-02-26T03:59:31;93229.02;;;9.16;75.75
84492;BME280;74718;40.778;21.400;2024-02-26T04:01:56;93225.04;;;9.13;75.25
84492;BME280;74718;40.778;21.400;2024-02-26T04:04:22;93224.11;;;9.10;75.29
84492;BME280;74718;40.778;21.400;2024-02-26T04:06:47;93221.02;;;9.09;75.28
84492;BME280;74718;40.778;21.400;2024-02-26T04:09:16;93223.99;;;9.05;75.09
84492;BME280;74718;40.778;21.400;2024-02-26T04:11:41;93221.48;;;8.99;75.04
84492;BME280;74718;40.778;21.400;2024-02-26T04:14:08;93219.64;;;8.96;75.22
84492;BME280;74718;40.778;21.400;2024-02-26T04:16:36;93216.79;;;8.91;75.48
84492;BME280;74718;40.778;21.400;2024-02-26T04:19:02;93216.34;;;8.89;75.50
84492;BME280;74718;40.778;21.400;2024-02-26T04:21:27;93216.25;;;8.87;75.69
84492;BME280;74718;40.778;21.400;2024-02-26T04:23:53;93212.89;;;8.86;75.91
84492;BME280;74718;40.778;21.400;2024-02-26T04:26:21;93202.53;;;8.83;75.94
84492;BME280;74718;40.778;21.400;2024-02-26T04:28:47;93201.51;;;8.81;75.81
84492;BME280;74718;40.778;21.400;2024-02-26T04:31:13;93203.19;;;8.81;75.74
84492;BME280;74718;40.778;21.400;2024-02-26T04:33:38;93203.88;;;8.80;75.67
84492;BME280;74718;40.778;21.400;2024-02-26T04:36:04;93197.84;;;8.74;75.58
84492;BME280;74718;40.778;21.400;2024-02-26T04:38:30;93202.19;;;8.65;75.76
84492;BME280;74718;40.778;21.400;2024-02-26T04:40:55;93203.64;;;8.66;75.75
84492;BME280;74718;40.778;21.400;2024-02-26T04:43:20;93205.05;;;8.67;75.61
84492;BME280;74718;40.778;21.400;2024-02-26T04:45:46;93204.13;;;8.65;75.86
84492;BME280;74718;40.778;21.400;2024-02-26T04:48:11;93204.54;;;8.66;75.81
84492;BME280;74718;40.778;21.400;2024-02-26T04:50:37;93205.38;;;8.66;75.81
84492;BME280;74718;40.778;21.400;2024-02-26T04:53:03;93203.11;;;8.66;75.91
84492;BME280;74718;40.778;21.400;2024-02-26T04:55:28;93204.98;;;8.68;75.69
84492;BME280;74718;40.778;21.400;2024-02-26T04:57:53;93210.88;;;8.68;75.74
84492;BME280;74718;40.778;21.400;2024-02-26T05:00:19;93215.86;;;8.69;75.69
84492;BME280;74718;40.778;21.400;2024-02-26T05:02:45;93213.59;;;8.76;75.80
84492;BME280;74718;40.778;21.400;2024-02-26T05:05:11;93216.99;;;8.81;75.54
84492;BME280;74718;40.778;21.400;2024-02-26T05:07:42;93216.84;;;8.86;75.53
84492;BME280;74718;40.778;21.400;2024-02-26T05:10:09;93212.70;;;8.84;75.17
84492;BME280;74718;40.778;21.400;2024-02-26T05:12:34;93212.98;;;8.82;75.07
84492;BME280;74718;40.778;21.400;2024-02-26T05:15:01;93215.95;;;8.81;75.26
84492;BME280;74718;40.778;21.400;2024-02-26T05:17:28;93214.25;;;8.78;75.28
84492;BME280;74718;40.778;21.400;2024-02-26T05:19:53;93216.70;;;8.74;75.29
84492;BME280;74718;40.778;21.400;2024-02-26T05:22:19;93214.04;;;8.72;75.53
84492;BME280;74718;40.778;21.400;2024-02-26T05:24:44;93218.86;;;8.75;75.64
84492;BME280;74718;40.778;21.400;2024-02-26T05:27:10;93214.39;;;8.74;75.70
84492;BME280;74718;40.778;21.400;2024-02-26T05:29:36;93217.98;;;8.73;75.45
84492;BME280;74718;40.778;21.400;2024-02-26T05:32:01;93217.36;;;8.70;75.77
84492;BME280;74718;40.778;21.400;2024-02-26T05:34:27;93220.58;;;8.66;75.42
84492;BME280;74718;40.778;21.400;2024-02-26T05:36:52;93220.42;;;8.60;75.42
84492;BME280;74718;40.778;21.400;2024-02-26T05:39:17;93212.95;;;8.50;75.54
84492;BME280;74718;40.778;21.400;2024-02-26T05:41:44;93222.13;;;8.51;75.87
84492;BME280;74718;40.778;21.400;2024-02-26T05:44:12;93222.25;;;8.55;76.10
84492;BME280;74718;40.778;21.400;2024-02-26T05:46:37;93228.79;;;8.58;76.03
84492;BME280;74718;40.778;21.400;2024-02-26T05:49:03;93231.66;;;8.61;76.15
84492;BME280;74718;40.778;21.400;2024-02-26T05:51:29;93232.86;;;8.63;76.09
84492;BME280;74718;40.778;21.400;2024-02-26T05:53:54;93236.52;;;8.65;76.03
84492;BME280;74718;40.778;21.400;2024-02-26T05:56:23;93239.95;;;8.66;76.04
84492;BME280;74718;40.778;21.400;2024-02-26T05:58:49;93242.61;;;8.68;76.10
84492;BME280;74718;40.778;21.400;2024-02-26T06:01:17;93245.70;;;8.71;76.13
84492;BME280;74718;40.778;21.400;2024-02-26T06:03:43;93257.45;;;8.74;76.12
84492;BME280;74718;40.778;21.400;2024-02-26T06:06:10;93262.27;;;8.80;76.05
84492;BME280;74718;40.778;21.400;2024-02-26T06:08:36;93272.20;;;8.84;75.83
84492;BME280;74718;40.778;21.400;2024-02-26T06:11:06;93271.92;;;8.87;75.92
84492;BME280;74718;40.778;21.400;2024-02-26T06:13:32;93268.58;;;8.90;75.84
84492;BME280;74718;40.778;21.400;2024-02-26T06:15:58;93276.17;;;8.94;75.63
84492;BME280;74718;40.778;21.400;2024-02-26T06:18:23;93274.82;;;8.96;75.72
84492;BME280;74718;40.778;21.400;2024-02-26T06:20:49;93268.64;;;8.99;75.60
84492;BME280;74718;40.778;21.400;2024-02-26T06:23:14;93272.18;;;9.02;75.26
84492;BME280;74718;40.778;21.400;2024-02-26T06:25:40;93272.38;;;9.03;75.14
84492;BME280;74718;40.778;21.400;2024-02-26T06:28:08;93269.80;;;9.04;75.42
84492;BME280;74718;40.778;21.400;2024-02-26T06:30:33;93277.21;;;9.05;75.18
84492;BME280;74718;40.778;21.400;2024-02-26T06:32:59;93270.11;;;9.04;75.19
84492;BME280;74718;40.778;21.400;2024-02-26T06:35:24;93275.27;;;9.03;75.42
84492;BME280;74718;40.778;21.400;2024-02-26T06:37:50;93282.22;;;9.02;75.17
84492;BME280;74718;40.778;21.400;2024-02-26T06:40:18;93277.04;;;9.00;74.95
84492;BME280;74718;40.778;21.400;2024-02-26T06:42:44;93275.30;;;8.97;75.47
84492;BME280;74718;40.778;21.400;2024-02-26T06:45:10;93278.33;;;9.03;75.14
84492;BME280;74718;40.778;21.400;2024-02-26T06:47:36;93276.30;;;9.11;75.12
84492;BME280;74718;40.778;21.400;2024-02-26T06:50:01;93275.80;;;9.10;75.11
84492;BME280;74718;40.778;21.400;2024-02-26T06:52:27;93277.75;;;9.08;75.26
84492;BME280;74718;40.778;21.400;2024-02-26T06:54:53;93279.87;;;9.16;75.74
84492;BME280;74718;40.778;21.400;2024-02-26T06:57:21;93282.14;;;9.26;75.37
84492;BME280;74718;40.778;21.400;2024-02-26T06:59:47;93282.54;;;9.30;75.35
84492;BME280;74718;40.778;21.400;2024-02-26T07:02:13;93286.70;;;9.31;75.04
84492;BME280;74718;40.778;21.400;2024-02-26T07:04:39;93288.13;;;9.36;74.76
84492;BME280;74718;40.778;21.400;2024-02-26T07:07:06;93287.70;;;9.35;75.06
84492;BME280;74718;40.778;21.400;2024-02-26T07:09:33;93285.45;;;9.34;74.86
84492;BME280;74718;40.778;21.400;2024-02-26T07:11:58;93287.77;;;9.35;74.73
84492;BME280;74718;40.778;21.400;2024-02-26T07:14:24;93290.81;;;9.35;74.76
84492;BME280;74718;40.778;21.400;2024-02-26T07:16:50;93289.36;;;9.39;74.94
84492;BME280;74718;40.778;21.400;2024-02-26T07:19:16;93294.54;;;9.45;74.88
84492;BME280;74718;40.778;21.400;2024-02-26T07:21:42;93297.37;;;9.49;74.87
84492;BME280;74718;40.778;21.400;2024-02-26T07:24:08;93298.17;;;9.54;74.43
84492;BME280;74718;40.778;21.400;2024-02-26T07:26:33;93302.70;;;9.54;74.71
84492;BME280;74718;40.778;21.400;2024-02-26T07:28:59;93302.88;;;9.52;74.40
84492;BME280;74718;40.778;21.400;2024-02-26T07:31:25;93311.17;;;9.53;74.54
84492;BME280;74718;40.778;21.400;2024-02-26T07:33:51;93318.52;;;9.55;74.60
84492;BME280;74718;40.778;21.400;2024-02-26T07:36:17;93321.20;;;9.56;74.20
84492;BME280;74718;40.778;21.400;2024-02-26T07:38:42;93319.85;;;9.54;74.18
84492;BME280;74718;40.778;21.400;2024-02-26T07:41:08;93321.18;;;9.52;74.07
84492;BME280;74718;40.778;21.400;2024-02-26T07:43:34;93315.83;;;9.50;74.00
84492;BME280;74718;40.778;21.400;2024-02-26T07:45:59;93316.70;;;9.53;74.25
84492;BME280;74718;40.778;21.400;2024-02-26T07:48:25;93319.48;;;9.54;74.45
84492;BME280;74718;40.778;21.400;2024-02-26T07:50:50;93319.81;;;9.58;74.52
84492;BME280;74718;40.778;21.400;2024-02-26T07:53:16;93319.44;;;9.59;74.64
84492;BME280;74718;40.778;21.400;2024-02-26T07:55:41;93317.08;;;9.60;74.53
84492;BME280;74718;40.778;21.400;2024-02-26T07:58:07;93316.95;;;9.63;74.76
84492;BME280;74718;40.778;21.400;2024-02-26T08:00:32;93319.38;;;9.61;74.85
84492;BME280;74718;40.778;21.400;2024-02-26T08:02:58;93322.37;;;9.59;74.90
84492;BME280;74718;40.778;21.400;2024-02-26T08:05:23;93326.01;;;9.59;75.24
84492;BME280;74718;40.778;21.400;2024-02-26T08:07:50;93326.77;;;9.57;75.06
84492;BME280;74718;40.778;21.400;2024-02-26T08:10:15;93321.35;;;9.56;74.94
84492;BME280;74718;40.778;21.400;2024-02-26T08:12:41;93325.77;;;9.57;74.70
84492;BME280;74718;40.778;21.400;2024-02-26T08:15:08;93332.28;;;9.58;75.26
84492;BME280;74718;40.778;21.400;2024-02-26T08:17:33;93332.93;;;9.60;75.25
84492;BME280;74718;40.778;21.400;2024-02-26T08:19:59;93332.61;;;9.69;75.27
84492;BME280;74718;40.778;21.400;2024-02-26T08:22:25;93333.35;;;9.81;75.28
84492;BME280;74718;40.778;21.400;2024-02-26T08:24:51;93333.59;;;9.93;75.04
84492;BME280;74718;40.778;21.400;2024-02-26T08:27:16;93342.59;;;10.04;74.34
84492;BME280;74718;40.778;21.400;2024-02-26T08:29:42;93340.42;;;10.14;73.90
84492;BME280;74718;40.778;21.400;2024-02-26T08:32:08;93337.74;;;10.26;73.94
84492;BME280;74718;40.778;21.400;2024-02-26T08:34:34;93336.19;;;10.33;73.84
84492;BME280;74718;40.778;21.400;2024-02-26T08:36:59;93334.30;;;10.41;73.50
84492;BME280;74718;40.778;21.400;2024-02-26T08:39:25;93336.94;;;10.70;73.17
84492;BME280;74718;40.778;21.400;2024-02-26T08:41:51;93325.14;;;11.04;71.86
84492;BME280;74718;40.778;21.400;2024-02-26T08:44:17;93335.21;;;11.19;70.71
84492;BME280;74718;40.778;21.400;2024-02-26T08:46:42;93339.11;;;11.25;70.70
84492;BME280;74718;40.778;21.400;2024-02-26T08:49:08;93337.64;;;11.29;70.36
84492;BME280;74718;40.778;21.400;2024-02-26T08:51:33;93342.75;;;11.33;69.89
84492;BME280;74718;40.778;21.400;2024-02-26T08:53:59;93343.45;;;11.29;68.74
84492;BME280;74718;40.778;21.400;2024-02-26T08:56:24;93333.86;;;11.21;68.19
84492;BME280;74718;40.778;21.400;2024-02-26T08:58:49;93323.38;;;11.15;67.91
84492;BME280;74718;40.778;21.400;2024-02-26T09:01:18;93317.08;;;11.18;68.57
84492;BME280;74718;40.778;21.400;2024-02-26T09:03:44;93312.05;;;11.31;68.45
84492;BME280;74718;40.778;21.400;2024-02-26T09:06:10;93315.38;;;11.37;68.19
84492;BME280;74718;40.778;21.400;2024-02-26T09:08:37;93323.13;;;11.43;67.73
84492;BME280;74718;40.778;21.400;2024-02-26T09:11:03;93327.14;;;11.39;67.72
84492;BME280;74718;40.778;21.400;2024-02-26T09:13:29;93324.35;;;11.35;67.91
84492;BME280;74718;40.778;21.400;2024-02-26T09:15:55;93325.98;;;11.34;67.88
84492;BME280;74718;40.778;21.400;2024-02-26T09:18:20;93318.73;;;11.29;67.72
84492;BME280;74718;40.778;21.400;2024-02-26T09:20:46;93317.87;;;11.24;67.10
84492;BME280;74718;40.778;21.400;2024-02-26T09:23:11;93319.44;;;11.19;67.46
84492;BME280;74718;40.778;21.400;2024-02-26T09:25:37;93316.33;;;11.14;66.90
84492;BME280;74718;40.778;21.400;2024-02-26T09:28:03;93315.05;;;11.10;67.10
84492;BME280;74718;40.778;21.400;2024-02-26T09:30:28;93324.41;;;11.13;67.17
84492;BME280;74718;40.778;21.400;2024-02-26T09:32:54;93320.29;;;11.13;67.09
84492;BME280;74718;40.778;21.400;2024-02-26T09:35:19;93318.78;;;11.18;66.82
84492;BME280;74718;40.778;21.400;2024-02-26T09:37:46;93316.73;;;11.23;66.47
84492;BME280;74718;40.778;21.400;2024-02-26T09:40:14;93315.86;;;11.28;66.25
84492;BME280;74718;40.778;21.400;2024-02-26T09:42:44;93310.05;;;11.45;65.80
84492;BME280;74718;40.778;21.400;2024-02-26T09:45:18;93308.80;;;11.52;65.73
84492;BME280;74718;40.778;21.400;2024-02-26T09:47:45;93301.48;;;11.62;65.16
84492;BME280;74718;40.778;21.400;2024-02-26T09:50:13;93299.61;;;11.68;65.23
84492;BME280;74718;40.778;21.400;2024-02-26T09:52:43;93300.24;;;11.66;64.17
84492;BME280;74718;40.778;21.400;2024-02-26T09:55:08;93295.59;;;11.59;64.19
84492;BME280;74718;40.778;21.400;2024-02-26T09:57:37;93292.48;;;11.58;64.57
84492;BME280;74718;40.778;21.400;2024-02-26T10:00:04;93298.91;;;11.59;64.26
84492;BME280;74718;40.778;21.400;2024-02-26T10:02:33;93295.23;;;11.54;64.00
84492;BME280;74718;40.778;21.400;2024-02-26T10:04:59;93291.70;;;11.54;64.38
84492;BME280;74718;40.778;21.400;2024-02-26T10:07:30;93289.26;;;11.52;64.40
84492;BME280;74718;40.778;21.400;2024-02-26T10:09:56;93287.34;;;11.51;64.36
84492;BME280;74718;40.778;21.400;2024-02-26T10:12:21;93282.38;;;11.53;64.55
84492;BME280;74718;40.778;21.400;2024-02-26T10:14:48;93289.85;;;11.57;64.31
84492;BME280;74718;40.778;21.400;2024-02-26T10:17:14;93287.23;;;11.59;63.84
84492;BME280;74718;40.778;21.400;2024-02-26T10:19:39;93279.68;;;11.59;63.80
84492;BME280;74718;40.778;21.400;2024-02-26T10:22:05;93280.46;;;11.57;63.27
84492;BME280;74718;40.778;21.400;2024-02-26T10:24:30;93279.61;;;11.58;63.59
84492;BME280;74718;40.778;21.400;2024-02-26T10:26:56;93278.73;;;11.59;64.14
84492;BME280;74718;40.778;21.400;2024-02-26T10:29:24;93275.21;;;11.61;64.07
84492;BME280;74718;40.778;21.400;2024-02-26T10:31:52;93272.94;;;11.61;63.75
84492;BME280;74718;40.778;21.400;2024-02-26T10:34:18;93274.29;;;11.59;63.35
84492;BME280;74718;40.778;21.400;2024-02-26T10:36:44;93276.86;;;11.57;62.92
84492;BME280;74718;40.778;21.400;2024-02-26T10:39:13;93275.55;;;11.54;62.43
84492;BME280;74718;40.778;21.400;2024-02-26T10:41:44;93274.98;;;11.51;62.26
84492;BME280;74718;40.778;21.400;2024-02-26T10:44:10;93264.81;;;11.52;62.40
84492;BME280;74718;40.778;21.400;2024-02-26T10:46:38;93264.55;;;11.56;62.31
84492;BME280;74718;40.778;21.400;2024-02-26T10:49:04;93264.96;;;11.59;62.44
84492;BME280;74718;40.778;21.400;2024-02-26T10:51:30;93268.89;;;11.60;62.52
84492;BME280;74718;40.778;21.400;2024-02-26T10:53:58;93274.70;;;11.60;62.57
84492;BME280;74718;40.778;21.400;2024-02-26T10:56:28;93277.07;;;11.61;62.76
84492;BME280;74718;40.778;21.400;2024-02-26T10:58:58;93284.55;;;11.61;62.93
84492;BME280;74718;40.778;21.400;2024-02-26T11:01:24;93285.23;;;11.64;63.08
84492;BME280;74718;40.778;21.400;2024-02-26T11:03:51;93286.98;;;11.69;62.30
84492;BME280;74718;40.778;21.400;2024-02-26T11:06:19;93286.46;;;11.74;62.07
84492;BME280;74718;40.778;21.400;2024-02-26T11:08:49;93280.84;;;11.99;61.73
84492;BME280;74718;40.778;21.400;2024-02-26T11:11:16;93276.45;;;12.30;60.96
84492;BME280;74718;40.778;21.400;2024-02-26T11:13:44;93275.77;;;12.66;60.02
84492;BME280;74718;40.778;21.400;2024-02-26T11:16:13;93275.69;;;12.88;59.03
84492;BME280;74718;40.778;21.400;2024-02-26T11:18:40;93274.82;;;12.95;59.02
84492;BME280;74718;40.778;21.400;2024-02-26T11:21:07;93267.33;;;12.97;58.12
84492;BME280;74718;40.778;21.400;2024-02-26T11:23:34;93259.73;;;12.96;58.60
84492;BME280;74718;40.778;21.400;2024-02-26T11:26:04;93257.85;;;12.99;58.33
84492;BME280;74718;40.778;21.400;2024-02-26T11:28:32;93256.40;;;13.07;58.00
84492;BME280;74718;40.778;21.400;2024-02-26T11:30:59;93255.35;;;13.12;57.52
84492;BME280;74718;40.778;21.400;2024-02-26T11:33:26;93256.51;;;13.12;57.86
84492;BME280;74718;40.778;21.400;2024-02-26T11:35:53;93250.08;;;13.06;57.29
84492;BME280;74718;40.778;21.400;2024-02-26T11:38:24;93248.71;;;12.96;56.90
84492;BME280;74718;40.778;21.400;2024-02-26T11:40:51;93251.80;;;12.93;57.21
84492;BME280;74718;40.778;21.400;2024-02-26T11:43:18;93249.97;;;12.89;56.89
84492;BME280;74718;40.778;21.400;2024-02-26T11:45:49;93253.14;;;12.83;57.03
84492;BME280;74718;40.778;21.400;2024-02-26T11:48:17;93250.93;;;12.74;56.95
84492;BME280;74718;40.778;21.400;2024-02-26T11:50:55;93251.98;;;12.66;56.98
84492;BME280;74718;40.778;21.400;2024-02-26T11:53:22;93250.59;;;12.58;57.25
84492;BME280;74718;40.778;21.400;2024-02-26T11:58:56;93247.29;;;12.43;57.46
84492;BME280;74718;40.778;21.400;2024-02-26T12:06:49;93256.73;;;12.30;57.56
84492;BME280;74718;40.778;21.400;2024-02-26T12:09:37;93250.83;;;12.25;57.89
84492;BME280;74718;40.778;21.400;2024-02-26T12:12:07;93252.07;;;12.21;57.80
84492;BME280;74718;40.778;21.400;2024-02-26T12:14:40;93253.98;;;12.19;57.84
84492;BME280;74718;40.778;21.400;2024-02-26T12:17:20;93254.13;;;12.19;58.16
84492;BME280;74718;40.778;21.400;2024-02-26T12:19:46;93252.72;;;12.21;58.03
84492;BME280;74718;40.778;21.400;2024-02-26T12:22:15;93251.97;;;12.24;57.99
84492;BME280;74718;40.778;21.400;2024-02-26T12:24:42;93255.13;;;12.27;58.08
84492;BME280;74718;40.778;21.400;2024-02-26T12:27:10;93256.08;;;12.30;57.93
84492;BME280;74718;40.778;21.400;2024-02-26T12:29:36;93252.63;;;12.34;57.35
84492;BME280;74718;40.778;21.400;2024-02-26T12:32:03;93250.66;;;12.37;57.37
84492;BME280;74718;40.778;21.400;2024-02-26T12:34:29;93247.19;;;12.41;57.25
84492;BME280;74718;40.778;21.400;2024-02-26T12:36:55;93246.45;;;12.45;57.35
84492;BME280;74718;40.778;21.400;2024-02-26T12:39:21;93241.39;;;12.46;57.30
84492;BME280;74718;40.778;21.400;2024-02-26T12:41:47;93243.38;;;12.47;57.10
84492;BME280;74718;40.778;21.400;2024-02-26T12:44:17;93250.61;;;12.43;56.78
84492;BME280;74718;40.778;21.400;2024-02-26T12:46:43;93246.58;;;12.38;57.25
84492;BME280;74718;40.778;21.400;2024-02-26T12:49:14;93241.87;;;12.33;57.20
84492;BME280;74718;40.778;21.400;2024-02-26T12:51:40;93242.30;;;12.31;56.91
84492;BME280;74718;40.778;21.400;2024-02-26T12:54:07;93242.16;;;12.27;56.76
84492;BME280;74718;40.778;21.400;2024-02-26T12:56:34;93249.59;;;12.26;57.16
84492;BME280;74718;40.778;21.400;2024-02-26T12:59:00;93248.70;;;12.26;56.97
84492;BME280;74718;40.778;21.400;2024-02-26T13:01:26;93249.95;;;12.27;56.89